sensor_id;sensor_type;location;lat;lon;timestamp;pressure;altitude;pressure_sealevel;temperature;humidity
64821;BME280;51256;55.654;37.264;2022-09-17T00:01:55;97460.19;;;10.18;87.69
64821;BME280;51256;55.654;37.264;2022-09-17T00:04:20;97448.50;;;10.12;87.78
64821;BME280;51256;55.654;37.264;2022-09-17T00:06:45;97455.56;;;10.05;88.38
64821;BME280;51256;55.654;37.264;2022-09-17T00:09:11;97449.00;;;10.01;87.92
64821;BME280;51256;55.654;37.264;2022-09-17T00:11:39;97461.63;;;9.99;88.08
64821;BME280;51256;55.654;37.264;2022-09-17T00:14:06;97461.19;;;9.95;87.88
64821;BME280;51256;55.654;37.264;2022-09-17T00:16:34;97476.47;;;9.93;88.17
64821;BME280;51256;55.654;37.264;2022-09-17T00:19:01;97476.84;;;9.90;88.65
64821;BME280;51256;55.654;37.264;2022-09-17T00:21:27;97456.31;;;9.77;88.52
64821;BME280;51256;55.654;37.264;2022-09-17T00:23:55;97476.78;;;9.83;88.13
64821;BME280;51256;55.654;37.264;2022-09-17T00:26:21;97472.22;;;9.77;88.16
64821;BME280;51256;55.654;37.264;2022-09-17T00:28:53;97475.25;;;9.74;88.10
64821;BME280;51256;55.654;37.264;2022-09-17T00:31:20;97472.31;;;9.69;87.91
64821;BME280;51256;55.654;37.264;2022-09-17T00:33:46;97477.81;;;9.67;88.18
64821;BME280;51256;55.654;37.264;2022-09-17T00:36:11;97471.47;;;9.62;87.93
64821;BME280;51256;55.654;37.264;2022-09-17T00:38:37;97474.47;;;9.58;87.83
64821;BME280;51256;55.654;37.264;2022-09-17T00:41:03;97483.25;;;9.59;87.74
64821;BME280;51256;55.654;37.264;2022-09-17T00:48:43;97485.94;;;9.44;87.83
64821;BME280;51256;55.654;37.264;2022-09-17T00:51:09;97494.88;;;9.43;88.46
64821;BME280;51256;55.654;37.264;2022-09-17T00:53:36;97491.59;;;9.41;87.78
64821;BME280;51256;55.654;37.264;2022-09-17T00:56:13;97496.44;;;9.37;88.42
64821;BME280;51256;55.654;37.264;2022-09-17T00:58:39;97495.81;;;9.35;88.26
64821;BME280;51256;55.654;37.264;2022-09-17T01:01:05;97490.06;;;9.32;88.06
64821;BME280;51256;55.654;37.264;2022-09-17T01:03:31;97489.41;;;9.30;88.07
64821;BME280;51256;55.654;37.264;2022-09-17T01:14:22;97492.44;;;9.12;89.00
64821;BME280;51256;55.654;37.264;2022-09-17T01:22:18;97496.91;;;9.11;88.87
64821;BME280;51256;55.654;37.264;2022-09-17T01:30:18;97495.38;;;9.02;88.12
64821;BME280;51256;55.654;37.264;2022-09-17T01:33:18;97490.06;;;9.02;87.93
64821;BME280;51256;55.654;37.264;2022-09-17T01:36:01;97497.75;;;8.97;88.27
64821;BME280;51256;55.654;37.264;2022-09-17T01:44:12;97500.66;;;8.87;88.57
64821;BME280;51256;55.654;37.264;2022-09-17T01:46:54;97502.84;;;8.83;87.80
64821;BME280;51256;55.654;37.264;2022-09-17T01:49:22;97503.22;;;8.80;88.03
64821;BME280;51256;55.654;37.264;2022-09-17T01:51:52;97499.06;;;8.77;87.98
64821;BME280;51256;55.654;37.264;2022-09-17T01:54:33;97492.31;;;8.75;88.07
64821;BME280;51256;55.654;37.264;2022-09-17T01:57:04;97501.28;;;8.74;88.21
64821;BME280;51256;55.654;37.264;2022-09-17T01:59:39;97501.28;;;8.74;88.22
64821;BME280;51256;55.654;37.264;2022-09-17T02:02:12;97505.13;;;8.71;87.89
64821;BME280;51256;55.654;37.264;2022-09-17T02:05:05;97505.13;;;8.71;88.12
64821;BME280;51256;55.654;37.264;2022-09-17T02:07:37;97493.34;;;8.59;88.06
64821;BME280;51256;55.654;37.264;2022-09-17T02:10:07;97510.47;;;8.63;88.59
64821;BME280;51256;55.654;37.264;2022-09-17T02:12:40;97514.78;;;8.64;88.34
64821;BME280;51256;55.654;37.264;2022-09-17T02:15:10;97512.31;;;8.63;88.02
64821;BME280;51256;55.654;37.264;2022-09-17T02:20:10;97511.66;;;8.60;88.42
64821;BME280;51256;55.654;37.264;2022-09-17T02:22:41;97512.66;;;8.59;88.36
64821;BME280;51256;55.654;37.264;2022-09-17T02:25:19;97520.59;;;8.59;87.98
64821;BME280;51256;55.654;37.264;2022-09-17T02:28:01;97524.03;;;8.60;88.60
64821;BME280;51256;55.654;37.264;2022-09-17T02:30:27;97523.75;;;8.55;88.11
64821;BME280;51256;55.654;37.264;2022-09-17T02:32:53;97530.88;;;8.54;88.34
64821;BME280;51256;55.654;37.264;2022-09-17T02:35:19;97524.94;;;8.52;88.29
64821;BME280;51256;55.654;37.264;2022-09-17T02:37:45;97530.59;;;8.49;88.82
64821;BME280;51256;55.654;37.264;2022-09-17T02:40:12;97523.00;;;8.46;88.22
64821;BME280;51256;55.654;37.264;2022-09-17T02:43:23;97538.34;;;8.51;88.54
64821;BME280;51256;55.654;37.264;2022-09-17T02:46:21;97535.06;;;8.49;88.14
64821;BME280;51256;55.654;37.264;2022-09-17T02:54:46;97525.72;;;8.38;88.30
64821;BME280;51256;55.654;37.264;2022-09-17T02:57:23;97533.63;;;8.38;88.03
64821;BME280;51256;55.654;37.264;2022-09-17T03:02:31;97534.81;;;8.35;88.50
64821;BME280;51256;55.654;37.264;2022-09-17T03:05:00;97534.34;;;8.32;88.41
64821;BME280;51256;55.654;37.264;2022-09-17T03:07:27;97535.34;;;8.31;88.28
64821;BME280;51256;55.654;37.264;2022-09-17T03:09:53;97535.72;;;8.27;88.38
64821;BME280;51256;55.654;37.264;2022-09-17T03:12:19;97545.91;;;8.31;88.29
64821;BME280;51256;55.654;37.264;2022-09-17T03:14:44;97546.91;;;8.30;88.57
64821;BME280;51256;55.654;37.264;2022-09-17T03:17:10;97546.09;;;8.29;88.16
64821;BME280;51256;55.654;37.264;2022-09-17T03:19:36;97542.63;;;8.28;88.56
64821;BME280;51256;55.654;37.264;2022-09-17T03:22:01;97541.63;;;8.30;88.22
64821;BME280;51256;55.654;37.264;2022-09-17T03:24:27;97546.91;;;8.30;88.69
64821;BME280;51256;55.654;37.264;2022-09-17T03:26:52;97554.50;;;8.33;88.28
64821;BME280;51256;55.654;37.264;2022-09-17T03:29:18;97552.50;;;8.35;88.33
64821;BME280;51256;55.654;37.264;2022-09-17T03:31:43;97552.34;;;8.36;88.66
64821;BME280;51256;55.654;37.264;2022-09-17T03:34:08;97553.16;;;8.37;88.60
64821;BME280;51256;55.654;37.264;2022-09-17T03:36:34;97555.78;;;8.37;88.48
64821;BME280;51256;55.654;37.264;2022-09-17T03:38:59;97559.09;;;8.39;88.50
64821;BME280;51256;55.654;37.264;2022-09-17T03:41:25;97558.91;;;8.40;88.54
64821;BME280;51256;55.654;37.264;2022-09-17T03:43:51;97573.59;;;8.43;88.35
64821;BME280;51256;55.654;37.264;2022-09-17T03:46:20;97574.75;;;8.40;88.76
64821;BME280;51256;55.654;37.264;2022-09-17T03:48:46;97568.00;;;8.38;88.61
64821;BME280;51256;55.654;37.264;2022-09-17T03:51:11;97562.72;;;8.38;88.56
64821;BME280;51256;55.654;37.264;2022-09-17T03:53:37;97572.31;;;8.39;88.44
64821;BME280;51256;55.654;37.264;2022-09-17T03:56:05;97583.50;;;8.41;88.64
64821;BME280;51256;55.654;37.264;2022-09-17T03:58:31;97577.59;;;8.39;88.36
64821;BME280;51256;55.654;37.264;2022-09-17T04:00:57;97581.84;;;8.40;88.50
64821;BME280;51256;55.654;37.264;2022-09-17T04:03:23;97584.97;;;8.43;88.73
64821;BME280;51256;55.654;37.264;2022-09-17T04:05:49;97569.00;;;8.37;88.93
64821;BME280;51256;55.654;37.264;2022-09-17T04:08:15;97578.69;;;8.44;88.54
64821;BME280;51256;55.654;37.264;2022-09-17T04:10:41;97579.69;;;8.43;88.55
64821;BME280;51256;55.654;37.264;2022-09-17T04:13:06;97588.47;;;8.44;89.14
64821;BME280;51256;55.654;37.264;2022-09-17T04:15:32;97580.34;;;8.46;88.89
64821;BME280;51256;55.654;37.264;2022-09-17T04:17:57;97586.13;;;8.49;88.93
64821;BME280;51256;55.654;37.264;2022-09-17T04:20:27;97589.06;;;8.54;88.65
64821;BME280;51256;55.654;37.264;2022-09-17T04:22:53;97590.91;;;8.54;88.89
64821;BME280;51256;55.654;37.264;2022-09-17T04:25:18;97602.75;;;8.58;88.83
64821;BME280;51256;55.654;37.264;2022-09-17T04:27:44;97599.94;;;8.59;88.90
64821;BME280;51256;55.654;37.264;2022-09-17T04:30:11;97601.78;;;8.59;88.84
64821;BME280;51256;55.654;37.264;2022-09-17T04:32:37;97605.22;;;8.59;88.88
64821;BME280;51256;55.654;37.264;2022-09-17T04:35:03;97598.09;;;8.60;89.20
64821;BME280;51256;55.654;37.264;2022-09-17T04:37:28;97604.22;;;8.60;89.00
64821;BME280;51256;55.654;37.264;2022-09-17T04:39:56;97606.34;;;8.65;89.02
64821;BME280;51256;55.654;37.264;2022-09-17T04:42:22;97601.50;;;8.69;89.36
64821;BME280;51256;55.654;37.264;2022-09-17T04:44:47;97598.84;;;8.69;89.04
64821;BME280;51256;55.654;37.264;2022-09-17T04:47:15;97608.38;;;8.78;89.33
64821;BME280;51256;55.654;37.264;2022-09-17T04:49:41;97606.50;;;8.87;89.34
64821;BME280;51256;55.654;37.264;2022-09-17T04:52:09;97622.59;;;9.00;89.62
64821;BME280;51256;55.654;37.264;2022-09-17T04:54:35;97612.28;;;9.05;89.48
64821;BME280;51256;55.654;37.264;2022-09-17T04:57:00;97609.44;;;9.07;89.48
64821;BME280;51256;55.654;37.264;2022-09-17T04:59:26;97608.44;;;9.08;89.09
64821;BME280;51256;55.654;37.264;2022-09-17T05:01:51;97593.94;;;9.04;89.26
64821;BME280;51256;55.654;37.264;2022-09-17T05:04:17;97610.72;;;9.11;89.02
64821;BME280;51256;55.654;37.264;2022-09-17T05:06:42;97615.03;;;9.12;89.39
64821;BME280;51256;55.654;37.264;2022-09-17T05:09:08;97601.50;;;9.07;89.20
64821;BME280;51256;55.654;37.264;2022-09-17T05:11:34;97618.59;;;9.19;89.38
64821;BME280;51256;55.654;37.264;2022-09-17T05:13:59;97622.34;;;9.25;89.35
64821;BME280;51256;55.654;37.264;2022-09-17T05:16:25;97632.19;;;9.31;89.38
64821;BME280;51256;55.654;37.264;2022-09-17T05:18:50;97624.09;;;9.33;89.77
64821;BME280;51256;55.654;37.264;2022-09-17T05:21:17;97632.78;;;9.41;88.97
64821;BME280;51256;55.654;37.264;2022-09-17T05:23:42;97640.00;;;9.48;89.73
64821;BME280;51256;55.654;37.264;2022-09-17T05:26:08;97639.91;;;9.56;89.76
64821;BME280;51256;55.654;37.264;2022-09-17T05:28:34;97642.00;;;9.61;89.11
64821;BME280;51256;55.654;37.264;2022-09-17T05:31:00;97638.81;;;9.65;89.48
64821;BME280;51256;55.654;37.264;2022-09-17T05:33:27;97647.31;;;9.76;89.49
64821;BME280;51256;55.654;37.264;2022-09-17T05:35:52;97645.38;;;9.84;89.42
64821;BME280;51256;55.654;37.264;2022-09-17T05:38:18;97652.03;;;9.95;89.50
64821;BME280;51256;55.654;37.264;2022-09-17T05:40:44;97652.19;;;10.09;89.94
64821;BME280;51256;55.654;37.264;2022-09-17T05:43:10;97651.16;;;10.25;90.50
64821;BME280;51256;55.654;37.264;2022-09-17T05:45:37;97652.84;;;10.47;90.21
64821;BME280;51256;55.654;37.264;2022-09-17T05:48:04;97653.44;;;10.64;90.29
64821;BME280;51256;55.654;37.264;2022-09-17T05:50:31;97652.34;;;10.80;90.67
64821;BME280;51256;55.654;37.264;2022-09-17T05:53:05;97642.00;;;10.85;90.09
64821;BME280;51256;55.654;37.264;2022-09-17T05:55:32;97661.81;;;11.11;91.06
64821;BME280;51256;55.654;37.264;2022-09-17T05:57:59;97654.84;;;11.32;90.90
64821;BME280;51256;55.654;37.264;2022-09-17T06:00:25;97655.75;;;11.46;90.75
64821;BME280;51256;55.654;37.264;2022-09-17T06:02:55;97665.19;;;11.55;90.39
64821;BME280;51256;55.654;37.264;2022-09-17T06:05:20;97659.97;;;11.68;90.08
64821;BME280;51256;55.654;37.264;2022-09-17T06:07:46;97657.53;;;11.74;90.13
64821;BME280;51256;55.654;37.264;2022-09-17T06:10:11;97655.53;;;11.76;90.17
64821;BME280;51256;55.654;37.264;2022-09-17T06:12:37;97651.88;;;11.83;89.80
64821;BME280;51256;55.654;37.264;2022-09-17T06:15:03;97660.31;;;11.94;89.97
64821;BME280;51256;55.654;37.264;2022-09-17T06:17:32;97664.06;;;11.99;89.81
64821;BME280;51256;55.654;37.264;2022-09-17T06:19:58;97670.22;;;12.07;89.70
64821;BME280;51256;55.654;37.264;2022-09-17T06:22:23;97661.25;;;12.14;89.81
64821;BME280;51256;55.654;37.264;2022-09-17T06:24:49;97665.16;;;12.25;89.63
64821;BME280;51256;55.654;37.264;2022-09-17T06:27:14;97659.69;;;12.40;89.66
64821;BME280;51256;55.654;37.264;2022-09-17T06:29:40;97666.50;;;12.49;89.06
64821;BME280;51256;55.654;37.264;2022-09-17T06:32:07;97664.66;;;12.57;88.64
64821;BME280;51256;55.654;37.264;2022-09-17T06:34:35;97665.06;;;12.60;88.76
64821;BME280;51256;55.654;37.264;2022-09-17T06:37:01;97663.25;;;12.68;88.42
64821;BME280;51256;55.654;37.264;2022-09-17T06:39:26;97675.97;;;12.79;88.38
64821;BME280;51256;55.654;37.264;2022-09-17T06:41:52;97663.28;;;12.81;88.13
64821;BME280;51256;55.654;37.264;2022-09-17T06:44:17;97676.38;;;12.89;87.81
64821;BME280;51256;55.654;37.264;2022-09-17T06:46:43;97677.00;;;12.91;87.30
64821;BME280;51256;55.654;37.264;2022-09-17T06:49:08;97671.47;;;12.93;87.06
64821;BME280;51256;55.654;37.264;2022-09-17T06:51:34;97675.59;;;13.02;86.78
64821;BME280;51256;55.654;37.264;2022-09-17T06:54:00;97663.31;;;13.14;86.75
64821;BME280;51256;55.654;37.264;2022-09-17T06:56:25;97669.84;;;13.25;85.68
64821;BME280;51256;55.654;37.264;2022-09-17T06:58:51;97681.97;;;13.41;85.69
64821;BME280;51256;55.654;37.264;2022-09-17T07:01:18;97668.44;;;13.50;84.63
64821;BME280;51256;55.654;37.264;2022-09-17T07:03:43;97698.34;;;13.52;83.68
64821;BME280;51256;55.654;37.264;2022-09-17T07:06:09;97693.63;;;13.60;83.60
64821;BME280;51256;55.654;37.264;2022-09-17T07:08:35;97690.53;;;13.70;82.80
64821;BME280;51256;55.654;37.264;2022-09-17T07:11:01;97694.22;;;13.69;80.97
64821;BME280;51256;55.654;37.264;2022-09-17T07:13:26;97691.34;;;13.71;81.40
64821;BME280;51256;55.654;37.264;2022-09-17T07:15:56;97700.38;;;13.76;81.60
64821;BME280;51256;55.654;37.264;2022-09-17T07:18:22;97715.34;;;13.84;80.71
64821;BME280;51256;55.654;37.264;2022-09-17T07:20:55;97713.88;;;13.95;80.07
64821;BME280;51256;55.654;37.264;2022-09-17T07:23:22;97708.31;;;14.03;79.99
64821;BME280;51256;55.654;37.264;2022-09-17T07:25:56;97718.78;;;14.05;79.46
64821;BME280;51256;55.654;37.264;2022-09-17T07:28:22;97721.06;;;14.01;76.27
64821;BME280;51256;55.654;37.264;2022-09-17T07:30:48;97715.31;;;13.98;77.63
64821;BME280;51256;55.654;37.264;2022-09-17T07:33:15;97712.63;;;14.04;77.48
64821;BME280;51256;55.654;37.264;2022-09-17T07:35:41;97715.47;;;14.09;77.93
64821;BME280;51256;55.654;37.264;2022-09-17T07:38:07;97719.97;;;14.16;77.58
64821;BME280;51256;55.654;37.264;2022-09-17T07:40:32;97716.28;;;14.23;77.56
64821;BME280;51256;55.654;37.264;2022-09-17T07:42:58;97724.28;;;14.23;76.97
64821;BME280;51256;55.654;37.264;2022-09-17T07:45:23;97719.56;;;14.19;76.76
64821;BME280;51256;55.654;37.264;2022-09-17T07:47:49;97712.19;;;14.14;73.98
64821;BME280;51256;55.654;37.264;2022-09-17T07:50:14;97710.56;;;14.06;75.11
64821;BME280;51256;55.654;37.264;2022-09-17T07:52:46;97724.53;;;14.08;75.46
64821;BME280;51256;55.654;37.264;2022-09-17T07:55:12;97725.75;;;14.13;74.52
64821;BME280;51256;55.654;37.264;2022-09-17T07:57:38;97715.31;;;13.98;74.09
64821;BME280;51256;55.654;37.264;2022-09-17T08:00:05;97726.59;;;13.93;74.14
64821;BME280;51256;55.654;37.264;2022-09-17T08:02:31;97713.69;;;13.83;75.55
64821;BME280;51256;55.654;37.264;2022-09-17T08:04:57;97706.16;;;13.73;75.46
64821;BME280;51256;55.654;37.264;2022-09-17T08:07:22;97715.38;;;13.64;74.91
64821;BME280;51256;55.654;37.264;2022-09-17T08:09:48;97714.97;;;13.60;75.95
64821;BME280;51256;55.654;37.264;2022-09-17T08:12:14;97707.78;;;13.54;76.41
64821;BME280;51256;55.654;37.264;2022-09-17T08:14:39;97718.66;;;13.53;75.69
64821;BME280;51256;55.654;37.264;2022-09-17T08:17:06;97705.53;;;13.38;76.28
64821;BME280;51256;55.654;37.264;2022-09-17T08:19:33;97709.41;;;13.28;75.38
64821;BME280;51256;55.654;37.264;2022-09-17T08:21:58;97712.91;;;13.22;74.41
64821;BME280;51256;55.654;37.264;2022-09-17T08:24:24;97717.81;;;13.25;74.00
64821;BME280;51256;55.654;37.264;2022-09-17T08:26:49;97694.25;;;13.22;73.24
64821;BME280;51256;55.654;37.264;2022-09-17T08:29:14;97714.75;;;13.28;73.61
64821;BME280;51256;55.654;37.264;2022-09-17T08:31:40;97702.84;;;13.31;72.67
64821;BME280;51256;55.654;37.264;2022-09-17T08:34:07;97705.97;;;13.41;73.23
64821;BME280;51256;55.654;37.264;2022-09-17T08:36:33;97705.75;;;13.50;72.07
64821;BME280;51256;55.654;37.264;2022-09-17T08:38:59;97708.00;;;13.53;72.39
64821;BME280;51256;55.654;37.264;2022-09-17T08:41:46;97731.78;;;13.61;71.31
64821;BME280;51256;55.654;37.264;2022-09-17T08:44:24;97718.44;;;13.54;64.67
64821;BME280;51256;55.654;37.264;2022-09-17T08:49:55;97728.28;;;13.74;67.28
64821;BME280;51256;55.654;37.264;2022-09-17T08:58:15;97706.72;;;13.89;64.22
64821;BME280;51256;55.654;37.264;2022-09-17T09:06:34;97726.75;;;14.18;62.33
64821;BME280;51256;55.654;37.264;2022-09-17T09:09:22;97690.00;;;14.20;61.22
64821;BME280;51256;55.654;37.264;2022-09-17T09:12:00;97695.31;;;14.27;59.35
64821;BME280;51256;55.654;37.264;2022-09-17T09:14:31;97717.66;;;14.33;57.72
64821;BME280;51256;55.654;37.264;2022-09-17T09:17:04;97740.81;;;14.46;58.29
64821;BME280;51256;55.654;37.264;2022-09-17T09:19:41;97705.88;;;14.54;59.52
64821;BME280;51256;55.654;37.264;2022-09-17T09:30:15;97725.59;;;14.98;56.63
64821;BME280;51256;55.654;37.264;2022-09-17T09:35:25;97733.91;;;15.15;57.09
64821;BME280;51256;55.654;37.264;2022-09-17T09:38:03;97746.34;;;15.28;53.56
64821;BME280;51256;55.654;37.264;2022-09-17T09:40:53;97731.41;;;15.20;52.28
64821;BME280;51256;55.654;37.264;2022-09-17T09:46:29;97750.00;;;15.08;50.22
64821;BME280;51256;55.654;37.264;2022-09-17T09:54:48;97745.59;;;15.71;52.44
64821;BME280;51256;55.654;37.264;2022-09-17T09:57:42;97726.50;;;15.93;50.68
64821;BME280;51256;55.654;37.264;2022-09-17T10:03:15;97729.41;;;16.10;49.33
64821;BME280;51256;55.654;37.264;2022-09-17T10:08:20;97753.72;;;16.27;48.98
64821;BME280;51256;55.654;37.264;2022-09-17T10:11:00;97747.56;;;16.45;49.12
64821;BME280;51256;55.654;37.264;2022-09-17T10:13:26;97743.75;;;16.53;49.28
64821;BME280;51256;55.654;37.264;2022-09-17T10:15:52;97748.63;;;16.56;48.20
64821;BME280;51256;55.654;37.264;2022-09-17T10:18:22;97745.06;;;16.62;48.69
64821;BME280;51256;55.654;37.264;2022-09-17T10:20:57;97759.50;;;16.61;48.74
64821;BME280;51256;55.654;37.264;2022-09-17T10:23:28;97753.72;;;16.46;48.34
64821;BME280;51256;55.654;37.264;2022-09-17T10:25:56;97769.78;;;16.27;48.58
64821;BME280;51256;55.654;37.264;2022-09-17T10:28:32;97762.06;;;16.19;48.64
64821;BME280;51256;55.654;37.264;2022-09-17T10:31:02;97760.41;;;16.18;49.29
64821;BME280;51256;55.654;37.264;2022-09-17T10:33:32;97767.47;;;16.31;48.98
64821;BME280;51256;55.654;37.264;2022-09-17T10:38:38;97781.91;;;15.86;49.64
64821;BME280;51256;55.654;37.264;2022-09-17T10:41:11;97768.47;;;15.67;50.42
64821;BME280;51256;55.654;37.264;2022-09-17T10:43:37;97763.06;;;15.49;50.14
64821;BME280;51256;55.654;37.264;2022-09-17T10:46:03;97770.09;;;15.43;51.10
64821;BME280;51256;55.654;37.264;2022-09-17T10:48:38;97765.59;;;15.44;51.35
64821;BME280;51256;55.654;37.264;2022-09-17T10:51:07;97764.69;;;15.50;49.58
64821;BME280;51256;55.654;37.264;2022-09-17T10:53:57;97766.56;;;15.75;49.21
64821;BME280;51256;55.654;37.264;2022-09-17T10:56:48;97770.34;;;15.92;48.76
64821;BME280;51256;55.654;37.264;2022-09-17T11:10:15;97778.00;;;17.00;48.39
64821;BME280;51256;55.654;37.264;2022-09-17T11:16:11;97767.56;;;17.10;48.23
64821;BME280;51256;55.654;37.264;2022-09-17T11:18:49;97751.59;;;17.15;47.96
64821;BME280;51256;55.654;37.264;2022-09-17T11:29:11;97780.50;;;16.64;47.58
64821;BME280;51256;55.654;37.264;2022-09-17T11:34:59;97793.13;;;16.38;48.50
64821;BME280;51256;55.654;37.264;2022-09-17T11:37:36;97787.94;;;16.25;48.86
64821;BME280;51256;55.654;37.264;2022-09-17T11:45:19;97783.00;;;16.78;47.38
64821;BME280;51256;55.654;37.264;2022-09-17T11:48:09;97772.09;;;16.61;46.88
64821;BME280;51256;55.654;37.264;2022-09-17T11:51:17;97780.72;;;16.44;47.95
64821;BME280;51256;55.654;37.264;2022-09-17T11:58:53;97792.94;;;16.40;47.18
64821;BME280;51256;55.654;37.264;2022-09-17T12:01:46;97763.91;;;16.37;47.25
64821;BME280;51256;55.654;37.264;2022-09-17T12:07:01;97781.97;;;16.23;46.92
64821;BME280;51256;55.654;37.264;2022-09-17T12:09:31;97774.63;;;16.37;45.99
64821;BME280;51256;55.654;37.264;2022-09-17T12:17:01;97795.53;;;16.65;45.01
64821;BME280;51256;55.654;37.264;2022-09-17T12:19:35;97804.16;;;16.49;45.63
64821;BME280;51256;55.654;37.264;2022-09-17T12:22:11;97803.31;;;16.30;46.02
64821;BME280;51256;55.654;37.264;2022-09-17T12:24:42;97789.94;;;16.30;46.66
64821;BME280;51256;55.654;37.264;2022-09-17T12:30:06;97806.44;;;16.82;45.91
64821;BME280;51256;55.654;37.264;2022-09-17T12:38:17;97818.53;;;17.22;45.09
64821;BME280;51256;55.654;37.264;2022-09-17T12:52:02;97812.78;;;16.88;45.92
64821;BME280;51256;55.654;37.264;2022-09-17T12:54:56;97837.28;;;16.73;46.33
64821;BME280;51256;55.654;37.264;2022-09-17T12:57:48;97837.63;;;16.58;47.15
64821;BME280;51256;55.654;37.264;2022-09-17T13:00:19;97830.72;;;16.50;47.41
64821;BME280;51256;55.654;37.264;2022-09-17T13:08:29;97827.13;;;17.12;46.38
64821;BME280;51256;55.654;37.264;2022-09-17T13:14:18;97805.63;;;17.00;46.68
64821;BME280;51256;55.654;37.264;2022-09-17T13:17:17;97819.34;;;16.92;46.04
64821;BME280;51256;55.654;37.264;2022-09-17T13:20:16;97815.75;;;16.61;45.73
64821;BME280;51256;55.654;37.264;2022-09-17T13:22:48;97810.47;;;16.36;46.31
64821;BME280;51256;55.654;37.264;2022-09-17T13:25:15;97804.81;;;16.26;46.94
64821;BME280;51256;55.654;37.264;2022-09-17T13:27:42;97812.84;;;16.26;47.22
64821;BME280;51256;55.654;37.264;2022-09-17T13:30:10;97818.59;;;16.48;47.80
64821;BME280;51256;55.654;37.264;2022-09-17T13:37:55;97824.16;;;17.32;47.11
64821;BME280;51256;55.654;37.264;2022-09-17T13:40:33;97813.63;;;17.61;46.51
64821;BME280;51256;55.654;37.264;2022-09-17T13:43:16;97815.88;;;17.76;46.19
64821;BME280;51256;55.654;37.264;2022-09-17T13:48:27;97819.25;;;17.29;46.94
64821;BME280;51256;55.654;37.264;2022-09-17T13:50:54;97825.56;;;17.05;47.47
64821;BME280;51256;55.654;37.264;2022-09-17T13:53:24;97826.78;;;16.90;47.79
64821;BME280;51256;55.654;37.264;2022-09-17T13:55:56;97818.88;;;16.77;48.26
64821;BME280;51256;55.654;37.264;2022-09-17T13:58:31;97829.38;;;16.78;48.56
64821;BME280;51256;55.654;37.264;2022-09-17T14:27:11;97845.00;;;15.68;53.33
64821;BME280;51256;55.654;37.264;2022-09-17T14:34:55;97851.19;;;18.27;48.69
64821;BME280;51256;55.654;37.264;2022-09-17T14:37:22;97857.28;;;19.11;47.03
64821;BME280;51256;55.654;37.264;2022-09-17T14:39:50;97848.00;;;19.19;45.16
64821;BME280;51256;55.654;37.264;2022-09-17T14:42:22;97837.75;;;17.61;48.56
64821;BME280;51256;55.654;37.264;2022-09-17T14:44:55;97852.81;;;16.64;51.17
64821;BME280;51256;55.654;37.264;2022-09-17T14:47:23;97851.53;;;16.04;52.96
64821;BME280;51256;55.654;37.264;2022-09-17T14:49:48;97849.94;;;15.71;53.79
64821;BME280;51256;55.654;37.264;2022-09-17T14:52:47;97848.09;;;15.40;54.66
64821;BME280;51256;55.654;37.264;2022-09-17T14:55:22;97859.97;;;15.83;53.72
64821;BME280;51256;55.654;37.264;2022-09-17T14:57:53;97854.34;;;16.35;52.33
64821;BME280;51256;55.654;37.264;2022-09-17T15:00:33;97862.34;;;16.60;52.05
64821;BME280;51256;55.654;37.264;2022-09-17T15:02:59;97867.88;;;16.84;51.30
64821;BME280;51256;55.654;37.264;2022-09-17T15:05:26;97890.91;;;16.48;52.13
64821;BME280;51256;55.654;37.264;2022-09-17T15:08:13;97887.69;;;15.56;55.33
64821;BME280;51256;55.654;37.264;2022-09-17T15:11:01;97871.06;;;15.09;57.40
64821;BME280;51256;55.654;37.264;2022-09-17T15:13:30;97833.44;;;15.75;55.61
64821;BME280;51256;55.654;37.264;2022-09-17T15:16:05;97862.59;;;16.33;54.65
64821;BME280;51256;55.654;37.264;2022-09-17T15:18:42;97852.94;;;16.14;54.78
64821;BME280;51256;55.654;37.264;2022-09-17T15:23:47;97851.84;;;15.96;55.63
64821;BME280;51256;55.654;37.264;2022-09-17T15:26:21;97868.75;;;15.26;57.52
64821;BME280;51256;55.654;37.264;2022-09-17T15:28:49;97863.00;;;14.50;59.51
64821;BME280;51256;55.654;37.264;2022-09-17T15:31:16;97881.75;;;14.10;61.52
64821;BME280;51256;55.654;37.264;2022-09-17T15:33:43;97875.75;;;13.74;62.56
64821;BME280;51256;55.654;37.264;2022-09-17T15:36:21;97868.59;;;13.55;63.36
64821;BME280;51256;55.654;37.264;2022-09-17T15:38:48;97859.06;;;13.32;63.83
64821;BME280;51256;55.654;37.264;2022-09-17T15:43:45;97856.97;;;13.14;64.30
64821;BME280;51256;55.654;37.264;2022-09-17T15:46:30;97866.16;;;13.11;64.96
64821;BME280;51256;55.654;37.264;2022-09-17T15:49:02;97870.66;;;13.04;65.19
64821;BME280;51256;55.654;37.264;2022-09-17T15:51:33;97880.06;;;13.00;65.20
64821;BME280;51256;55.654;37.264;2022-09-17T15:54:01;97879.00;;;12.94;65.41
64821;BME280;51256;55.654;37.264;2022-09-17T15:56:37;97891.09;;;12.90;65.97
64821;BME280;51256;55.654;37.264;2022-09-17T15:59:25;97891.13;;;12.97;65.80
64821;BME280;51256;55.654;37.264;2022-09-17T16:01:54;97893.38;;;13.00;66.19
64821;BME280;51256;55.654;37.264;2022-09-17T16:04:21;97894.81;;;13.03;66.02
64821;BME280;51256;55.654;37.264;2022-09-17T16:06:58;97898.72;;;13.07;65.82
64821;BME280;51256;55.654;37.264;2022-09-17T16:09:42;97899.94;;;13.04;65.99
64821;BME280;51256;55.654;37.264;2022-09-17T16:12:12;97895.19;;;12.93;66.43
64821;BME280;51256;55.654;37.264;2022-09-17T16:14:42;97891.84;;;12.77;66.63
64821;BME280;51256;55.654;37.264;2022-09-17T16:17:46;97901.88;;;12.75;66.94
64821;BME280;51256;55.654;37.264;2022-09-17T16:22:40;97913.06;;;12.64;67.61
64821;BME280;51256;55.654;37.264;2022-09-17T16:25:07;97920.03;;;12.65;67.73
64821;BME280;51256;55.654;37.264;2022-09-17T16:27:44;97909.78;;;12.62;67.97
64821;BME280;51256;55.654;37.264;2022-09-17T16:30:19;97915.91;;;12.56;67.96
64821;BME280;51256;55.654;37.264;2022-09-17T16:32:46;97912.97;;;12.51;67.78